createdAt,value
2022-07-30T00:01:36.018Z,68.88
2022-07-30T00:04:05.522Z,68.66
2022-07-30T00:06:34.085Z,68.26
2022-07-30T00:09:02.665Z,68.64
2022-07-30T00:11:31.293Z,69.25
2022-07-30T00:14:00.027Z,67.78
2022-07-30T00:16:29.064Z,67.94
2022-07-30T00:18:57.655Z,67.63
2022-07-30T00:21:35.489Z,66.94
2022-07-30T00:24:06.655Z,67.10
2022-07-30T00:26:35.568Z,66.95
2022-07-30T00:29:05.377Z,67.05
2022-07-30T00:31:34.120Z,68.41
2022-07-30T00:34:02.812Z,68.62
2022-07-30T00:36:31.572Z,69.12
2022-07-30T00:39:00.265Z,67.44
2022-07-30T00:41:29.192Z,65.79
2022-07-30T00:43:57.738Z,63.95
2022-07-30T00:46:26.275Z,64.03
2022-07-30T00:48:54.857Z,64.48
2022-07-30T00:51:23.428Z,64.63
2022-07-30T00:53:52.147Z,66.11
2022-07-30T00:56:20.629Z,65.71
2022-07-30T00:58:49.203Z,66.35
2022-07-30T01:01:18.265Z,67.58
2022-07-30T01:03:46.922Z,67.75
2022-07-30T01:06:15.721Z,67.98
2022-07-30T01:08:44.398Z,68.94
2022-07-30T01:11:13.313Z,69.27
2022-07-30T01:13:42.037Z,69.36
2022-07-30T01:16:11.485Z,69.65
2022-07-30T01:19:01.713Z,69.80
2022-07-30T01:21:38.682Z,70.65
2022-07-30T01:24:42.283Z,71.38
2022-07-30T01:27:16.825Z,71.13
2022-07-30T01:29:49.808Z,72.50
2022-07-30T01:32:24.146Z,72.46
2022-07-30T01:34:56.594Z,73.03
2022-07-30T01:37:27.326Z,73.14
2022-07-30T01:39:57.670Z,74.67
2022-07-30T01:42:29.711Z,73.99
2022-07-30T01:44:59.501Z,74.66
2022-07-30T01:47:29.850Z,75.95
2022-07-30T01:50:00.174Z,75.32
2022-07-30T01:52:31.304Z,75.23
2022-07-30T01:55:03.702Z,75.94
2022-07-30T01:57:41.702Z,74.53
2022-07-30T02:00:12.290Z,75.24
2022-07-30T02:02:41.483Z,75.35
2022-07-30T02:05:10.519Z,76.48
2022-07-30T02:07:53.099Z,76.59
2022-07-30T02:10:42.600Z,76.22
2022-07-30T02:13:18.396Z,76.18
2022-07-30T02:15:57.324Z,76.95
2022-07-30T02:19:02.563Z,76.36
2022-07-30T02:21:51.763Z,76.27
2022-07-30T02:24:27.638Z,76.38
2022-07-30T02:27:18.841Z,76.23
2022-07-30T02:29:49.658Z,75.59
2022-07-30T02:32:22.645Z,75.13
2022-07-30T02:34:59.435Z,74.55
2022-07-30T02:37:41.111Z,73.16
2022-07-30T02:40:18.531Z,72.16
2022-07-30T02:42:51.888Z,71.98
2022-07-30T02:45:24.168Z,71.97
2022-07-30T02:48:06.777Z,71.64
2022-07-30T02:50:36.743Z,70.77
2022-07-30T02:53:12.391Z,70.08
2022-07-30T02:55:43.433Z,69.87
2022-07-30T02:58:13.316Z,69.84
2022-07-30T03:00:43.459Z,70.10
2022-07-30T03:03:14.251Z,69.59
2022-07-30T03:05:45.167Z,69.13
2022-07-30T03:08:19.792Z,69.46
2022-07-30T03:10:49.828Z,71.16
2022-07-30T03:13:20.653Z,72.61
2022-07-30T03:15:53.212Z,73.02
2022-07-30T03:18:24.470Z,72.37
2022-07-30T03:20:57.160Z,73.21
2022-07-30T03:23:26.486Z,72.70
2022-07-30T03:26:02.801Z,73.03
2022-07-30T03:28:39.774Z,73.79
2022-07-30T03:31:11.728Z,73.74
2022-07-30T03:33:42.478Z,74.07
2022-07-30T03:36:14.259Z,75.35
2022-07-30T03:38:44.037Z,75.88
2022-07-30T03:41:14.008Z,74.94
2022-07-30T03:43:43.141Z,74.79
2022-07-30T03:46:14.899Z,75.10
2022-07-30T03:48:44.946Z,75.07
2022-07-30T03:51:14.401Z,76.17
2022-07-30T03:53:43.328Z,76.43
2022-07-30T03:56:15.228Z,77.37
2022-07-30T03:58:43.780Z,77.16
2022-07-30T04:01:12.606Z,77.05
2022-07-30T04:03:41.249Z,77.17
2022-07-30T04:06:09.830Z,77.54
2022-07-30T04:08:38.433Z,77.34
2022-07-30T04:11:06.932Z,78.16
2022-07-30T04:13:35.379Z,78.68
2022-07-30T04:16:39.362Z,79.54
2022-07-30T04:19:23.517Z,80.56
2022-07-30T04:21:54.912Z,80.05
2022-07-30T04:24:26.465Z,80.54
2022-07-30T04:26:54.709Z,80.53
2022-07-30T04:29:24.901Z,80.02
2022-07-30T04:31:57.366Z,79.36
2022-07-30T04:34:25.966Z,79.63
2022-07-30T04:36:54.468Z,79.52
2022-07-30T04:39:23.105Z,79.40
2022-07-30T04:41:51.740Z,78.85
2022-07-30T04:44:20.833Z,78.59
2022-07-30T04:46:49.458Z,78.52
2022-07-30T04:49:19.956Z,77.73
2022-07-30T04:51:50.548Z,77.83
2022-07-30T04:54:21.859Z,78.07
2022-07-30T04:56:53.449Z,76.57
2022-07-30T04:59:25.974Z,76.31
2022-07-30T05:01:59.461Z,75.77
2022-07-30T05:04:31.063Z,75.58
2022-07-30T05:07:02.488Z,74.46
2022-07-30T05:09:33.517Z,73.82
2022-07-30T05:12:02.145Z,73.05
2022-07-30T05:14:30.662Z,71.69
2022-07-30T05:16:59.643Z,71.78
2022-07-30T05:19:28.729Z,70.93
2022-07-30T05:21:57.299Z,70.83
2022-07-30T05:24:26.197Z,69.62
2022-07-30T05:26:54.669Z,69.66
2022-07-30T05:29:23.365Z,69.84
2022-07-30T05:31:53.069Z,67.98
2022-07-30T05:34:21.691Z,66.94
2022-07-30T05:36:51.179Z,67.87
2022-07-30T05:39:19.742Z,66.86
2022-07-30T05:41:48.311Z,65.50
2022-07-30T05:44:19.690Z,65.58
2022-07-30T05:46:50.843Z,65.75
2022-07-30T05:49:19.549Z,64.75
2022-07-30T05:51:48.045Z,64.40
2022-07-30T05:54:19.036Z,64.49
2022-07-30T05:56:47.517Z,64.06
2022-07-30T05:59:16.095Z,64.96
2022-07-30T06:01:44.837Z,64.98
2022-07-30T06:04:13.570Z,64.41
2022-07-30T06:06:42.201Z,64.17
2022-07-30T06:09:10.757Z,63.50
2022-07-30T06:11:39.355Z,62.96
2022-07-30T06:14:07.752Z,62.63
2022-07-30T06:16:36.328Z,62.12
2022-07-30T06:19:05.177Z,61.47
2022-07-30T06:22:06.056Z,60.84
2022-07-30T06:24:22.547Z,60.43
2022-07-30T06:26:51.285Z,59.74
2022-07-30T06:29:20.765Z,60.20
2022-07-30T06:31:49.357Z,60.22
2022-07-30T06:34:17.893Z,60.06
2022-07-30T06:36:46.416Z,59.65
2022-07-30T06:39:53.820Z,59.51
2022-07-30T06:42:04.128Z,60.19
2022-07-30T06:44:32.713Z,59.67
2022-07-30T06:47:07.217Z,58.31
2022-07-30T06:49:37.361Z,56.95
2022-07-30T06:52:06.818Z,54.74
2022-07-30T06:54:35.300Z,54.87
2022-07-30T06:57:04.089Z,57.45
2022-07-30T06:59:32.724Z,56.84
2022-07-30T07:02:21.469Z,58.53
2022-07-30T07:04:50.075Z,57.93
2022-07-30T07:07:37.103Z,57.05
2022-07-30T07:10:08.747Z,55.26
2022-07-30T07:12:38.498Z,53.82
2022-07-30T07:15:09.151Z,53.51
2022-07-30T07:17:37.981Z,55.87
2022-07-30T07:20:07.313Z,54.92
2022-07-30T07:22:36.907Z,56.71
2022-07-30T07:25:06.828Z,57.96
2022-07-30T07:27:35.488Z,58.58
2022-07-30T07:30:07.308Z,58.44
2022-07-30T07:32:37.611Z,58.51
2022-07-30T07:35:07.382Z,58.35
2022-07-30T07:37:35.905Z,57.76
2022-07-30T07:40:06.062Z,54.72
2022-07-30T07:42:34.606Z,54.45
2022-07-30T07:45:03.524Z,51.62
2022-07-30T07:47:43.400Z,50.09
2022-07-30T07:50:21.698Z,50.24
2022-07-30T07:52:50.620Z,49.65
2022-07-30T07:55:19.353Z,47.69
2022-07-30T07:57:48.238Z,48.61
2022-07-30T08:00:19.272Z,49.48
2022-07-30T08:02:51.892Z,50.63
2022-07-30T08:05:20.566Z,50.97
2022-07-30T08:07:49.087Z,50.46
2022-07-30T08:10:17.777Z,47.79
2022-07-30T08:12:46.291Z,48.02
2022-07-30T08:15:17.080Z,48.54
2022-07-30T08:17:49.204Z,47.66
2022-07-30T08:20:17.817Z,48.54
2022-07-30T08:22:46.287Z,48.00
2022-07-30T08:25:21.702Z,48.68
2022-07-30T08:27:52.589Z,49.85
2022-07-30T08:30:23.247Z,48.86
2022-07-30T08:32:51.840Z,47.54
2022-07-30T08:35:20.544Z,46.51
2022-07-30T08:37:49.393Z,47.60
2022-07-30T08:40:21.007Z,45.73
2022-07-30T08:42:50.964Z,46.76
2022-07-30T08:45:20.386Z,50.60
2022-07-30T08:48:14.898Z,50.40
2022-07-30T08:50:46.398Z,49.38
2022-07-30T08:53:15.755Z,49.72
2022-07-30T08:55:44.766Z,50.55
2022-07-30T08:58:32.081Z,50.75
2022-07-30T09:01:00.878Z,50.33
2022-07-30T09:03:29.946Z,50.06
2022-07-30T09:05:59.281Z,51.60
2022-07-30T09:08:30.316Z,51.89
2022-07-30T09:11:00.109Z,52.58
2022-07-30T09:13:39.213Z,53.51
2022-07-30T09:16:09.711Z,54.15
2022-07-30T09:18:41.266Z,56.07
2022-07-30T09:21:29.412Z,63.78
2022-07-30T09:23:59.116Z,64.87
2022-07-30T09:26:29.317Z,66.61
2022-07-30T09:29:19.260Z,66.67
2022-07-30T09:32:05.179Z,67.08
2022-07-30T09:34:38.684Z,64.97
2022-07-30T09:37:09.916Z,63.42
2022-07-30T09:39:56.274Z,62.05
2022-07-30T09:42:29.713Z,60.65
2022-07-30T09:45:27.509Z,61.51
2022-07-30T09:48:26.282Z,63.39
2022-07-30T09:53:59.068Z,63.56
2022-07-30T09:56:30.929Z,65.81
2022-07-30T09:58:59.709Z,67.07
2022-07-30T10:01:49.599Z,67.77
2022-07-30T10:04:32.961Z,67.21
2022-07-30T10:07:04.797Z,65.83
2022-07-30T10:09:37.729Z,63.78
2022-07-30T10:12:11.275Z,63.93
2022-07-30T10:14:46.769Z,63.19
2022-07-30T10:17:15.978Z,65.44
2022-07-30T10:19:47.165Z,66.92
2022-07-30T10:22:17.839Z,65.31
2022-07-30T10:24:49.628Z,66.11
2022-07-30T10:27:18.769Z,65.47
2022-07-30T10:29:48.369Z,67.33
2022-07-30T10:32:17.016Z,66.76
2022-07-30T10:34:45.686Z,69.64
2022-07-30T10:37:17.897Z,70.97
2022-07-30T10:39:57.705Z,71.20
2022-07-30T10:43:44.676Z,71.84
2022-07-30T10:47:07.281Z,73.10
2022-07-30T10:49:41.460Z,74.94
2022-07-30T10:52:12.842Z,75.95
2022-07-30T10:54:47.497Z,76.44
2022-07-30T10:57:31.686Z,78.07
2022-07-30T11:00:03.735Z,86.31
2022-07-30T11:02:35.812Z,90.50
2022-07-30T11:05:27.188Z,92.75
2022-07-30T11:08:42.890Z,93.05
2022-07-30T11:11:59.117Z,93.04
2022-07-30T11:14:13.081Z,91.74
2022-07-30T11:16:42.273Z,90.68
2022-07-30T11:19:56.467Z,91.87
2022-07-30T11:22:36.191Z,89.98
2022-07-30T11:25:12.881Z,90.03
2022-07-30T11:27:46.714Z,91.29
2022-07-30T11:30:17.568Z,89.25
2022-07-30T11:32:56.662Z,88.78
2022-07-30T11:35:34.581Z,88.56
2022-07-30T11:38:18.896Z,87.11
2022-07-30T11:40:50.189Z,86.98
2022-07-30T11:43:35.838Z,86.64
2022-07-30T11:46:28.637Z,86.07
2022-07-30T11:49:05.786Z,84.80
2022-07-30T11:51:46.572Z,82.85
2022-07-30T11:54:15.575Z,84.14
2022-07-30T11:57:03.850Z,84.37
2022-07-30T11:59:33.210Z,86.11
2022-07-30T12:02:02.942Z,85.07
2022-07-30T12:04:32.603Z,85.12
2022-07-30T12:07:02.296Z,83.33
2022-07-30T12:09:32.910Z,82.70
2022-07-30T12:12:02.595Z,82.45
2022-07-30T12:14:42.209Z,84.81
2022-07-30T12:17:15.371Z,82.79
2022-07-30T12:19:49.069Z,82.58
2022-07-30T12:22:19.833Z,82.32
2022-07-30T12:24:48.369Z,78.34
2022-07-30T12:27:18.659Z,78.57
2022-07-30T12:29:47.177Z,78.17
2022-07-30T12:32:15.970Z,79.03
2022-07-30T12:34:58.430Z,80.65
2022-07-30T12:37:27.010Z,78.38
2022-07-30T12:40:16.722Z,78.09
2022-07-30T12:42:53.560Z,79.75
2022-07-30T12:45:51.805Z,77.90
2022-07-30T12:48:22.893Z,77.94
2022-07-30T12:51:10.907Z,79.97
2022-07-30T12:53:39.503Z,80.94
2022-07-30T12:56:19.894Z,80.01
2022-07-30T12:58:49.503Z,79.15
2022-07-30T13:01:20.507Z,78.10
2022-07-30T13:03:50.172Z,78.14
2022-07-30T13:06:25.686Z,78.90
2022-07-30T13:08:59.689Z,77.94
2022-07-30T13:11:49.003Z,77.94
2022-07-30T13:14:18.909Z,77.15
2022-07-30T13:16:57.034Z,77.58
2022-07-30T13:19:27.486Z,76.46
2022-07-30T13:21:56.961Z,75.94
2022-07-30T13:24:26.804Z,76.14
2022-07-30T13:26:56.464Z,75.67
2022-07-30T13:29:25.097Z,75.33
2022-07-30T13:31:54.516Z,75.56
2022-07-30T13:34:22.957Z,75.23
2022-07-30T13:36:52.448Z,74.54
2022-07-30T13:39:21.936Z,73.91
2022-07-30T13:41:51.381Z,74.33
2022-07-30T13:44:20.933Z,70.91
2022-07-30T13:46:50.416Z,70.63
2022-07-30T13:49:19.952Z,71.79
2022-07-30T13:51:48.373Z,72.28
2022-07-30T13:54:18.127Z,70.48
2022-07-30T13:56:47.635Z,68.79
2022-07-30T13:59:17.772Z,69.90
2022-07-30T14:01:47.263Z,68.84
2022-07-30T14:04:16.727Z,69.37
2022-07-30T14:06:46.197Z,69.47
2022-07-30T14:09:15.767Z,70.11
2022-07-30T14:11:45.252Z,71.93
2022-07-30T14:14:14.848Z,72.98
2022-07-30T14:16:46.732Z,72.20
2022-07-30T14:19:23.921Z,73.89
2022-07-30T14:21:54.605Z,73.94
2022-07-30T14:24:23.792Z,74.65
2022-07-30T14:26:58.673Z,74.48
2022-07-30T14:29:28.956Z,75.09
2022-07-30T14:31:58.466Z,76.43
2022-07-30T14:34:28.371Z,78.25
2022-07-30T14:36:57.837Z,78.45
2022-07-30T14:39:27.333Z,79.21
2022-07-30T14:41:57.344Z,80.41
2022-07-30T14:44:26.886Z,78.92
2022-07-30T14:46:56.345Z,79.80
2022-07-30T14:49:25.867Z,80.24
2022-07-30T14:51:55.746Z,81.02
2022-07-30T14:54:25.306Z,79.45
2022-07-30T14:56:58.375Z,78.53
2022-07-30T14:59:28.820Z,78.18
2022-07-30T15:01:58.398Z,78.18
2022-07-30T15:04:29.289Z,77.22
2022-07-30T15:06:59.466Z,77.93
2022-07-30T15:09:30.446Z,77.37
2022-07-30T15:12:23.785Z,78.25
2022-07-30T15:14:50.368Z,77.93
2022-07-30T15:17:21.888Z,77.72
2022-07-30T15:19:51.604Z,77.84
2022-07-30T15:22:21.224Z,78.45
2022-07-30T15:24:50.703Z,79.09
2022-07-30T15:27:22.409Z,78.32
2022-07-30T15:29:57.307Z,77.12
2022-07-30T15:32:26.744Z,77.10
2022-07-30T15:34:58.933Z,76.69
2022-07-30T15:37:28.521Z,76.80
2022-07-30T15:39:57.989Z,77.16
2022-07-30T15:42:27.584Z,77.68
2022-07-30T15:45:15.887Z,76.19
2022-07-30T15:47:46.680Z,76.51
2022-07-30T15:50:17.429Z,75.71
2022-07-30T15:52:53.219Z,73.93
2022-07-30T15:55:23.193Z,70.97
2022-07-30T15:57:52.718Z,72.41
2022-07-30T16:00:22.447Z,72.69
2022-07-30T16:02:51.958Z,73.54
2022-07-30T16:05:21.419Z,73.08
2022-07-30T16:07:51.092Z,72.44
2022-07-30T16:10:19.807Z,73.26
2022-07-30T16:12:49.584Z,71.68
2022-07-30T16:15:18.974Z,72.43
2022-07-30T16:17:52.397Z,72.54
2022-07-30T16:20:21.958Z,72.11
2022-07-30T16:22:51.483Z,72.54
2022-07-30T16:25:20.934Z,72.57
2022-07-30T16:27:50.936Z,72.64
2022-07-30T16:30:20.676Z,72.52
2022-07-30T16:32:51.689Z,72.65
2022-07-30T16:35:21.392Z,73.11
2022-07-30T16:37:49.933Z,72.96
2022-07-30T16:40:20.044Z,71.91
2022-07-30T16:42:48.522Z,71.72
2022-07-30T16:45:17.998Z,71.84
2022-07-30T16:47:48.913Z,71.28
2022-07-30T16:50:19.470Z,70.67
2022-07-30T16:52:48.989Z,71.24
2022-07-30T16:55:18.466Z,70.08
2022-07-30T16:57:49.284Z,69.92
2022-07-30T17:00:18.446Z,69.86
2022-07-30T17:02:47.906Z,70.98
2022-07-30T17:05:17.534Z,71.12
2022-07-30T17:07:46.001Z,71.73
2022-07-30T17:10:15.500Z,72.20
2022-07-30T17:12:57.235Z,70.91
2022-07-30T17:15:32.241Z,71.07
2022-07-30T17:18:02.423Z,71.50
2022-07-30T17:20:32.531Z,70.17
2022-07-30T17:23:02.048Z,70.49
2022-07-30T17:25:31.124Z,69.91
2022-07-30T17:28:01.404Z,69.10
2022-07-30T17:30:31.119Z,69.39
2022-07-30T17:33:00.661Z,69.34
2022-07-30T17:35:30.203Z,70.01
2022-07-30T17:38:02.865Z,71.07
2022-07-30T17:40:32.993Z,70.50
2022-07-30T17:43:06.145Z,72.31
2022-07-30T17:45:37.534Z,70.98
2022-07-30T17:48:08.397Z,71.90
2022-07-30T17:50:37.875Z,72.31
2022-07-30T17:53:07.411Z,72.49
2022-07-30T17:55:36.974Z,72.39
2022-07-30T17:58:06.870Z,73.14
2022-07-30T18:00:36.629Z,72.98
2022-07-30T18:03:06.178Z,73.66
2022-07-30T18:05:35.817Z,72.87
2022-07-30T18:08:05.623Z,72.97
2022-07-30T18:10:35.134Z,73.94
2022-07-30T18:13:19.229Z,74.43
2022-07-30T18:15:54.734Z,74.13
2022-07-30T18:18:24.720Z,74.85
2022-07-30T18:20:54.381Z,75.16
2022-07-30T18:23:22.934Z,75.14
2022-07-30T18:25:53.030Z,75.52
2022-07-30T18:28:24.196Z,76.17
2022-07-30T18:30:55.159Z,75.95
2022-07-30T18:33:24.618Z,76.15
2022-07-30T18:35:54.188Z,76.80
2022-07-30T18:38:22.631Z,75.96
2022-07-30T18:40:58.070Z,76.26
2022-07-30T18:43:29.925Z,76.63
2022-07-30T18:46:02.660Z,77.39
2022-07-30T18:48:32.224Z,78.11
2022-07-30T18:51:02.782Z,77.25
2022-07-30T18:53:34.223Z,77.42
2022-07-30T18:56:04.228Z,77.35
2022-07-30T18:58:33.702Z,77.79
2022-07-30T19:01:03.425Z,77.66
2022-07-30T19:03:31.929Z,77.35
2022-07-30T19:06:01.465Z,76.97
2022-07-30T19:08:31.631Z,77.08
2022-07-30T19:11:01.217Z,76.96
2022-07-30T19:13:30.703Z,77.52
2022-07-30T19:16:00.249Z,76.79
2022-07-30T19:18:29.853Z,77.75
2022-07-30T19:20:59.370Z,77.20
2022-07-30T19:23:27.779Z,76.87
2022-07-30T19:25:58.285Z,77.41
2022-07-30T19:28:27.177Z,76.65
2022-07-30T19:30:56.631Z,78.40
2022-07-30T19:33:26.123Z,77.93
2022-07-30T19:35:55.565Z,77.98
2022-07-30T19:38:24.161Z,77.77
2022-07-30T19:40:53.031Z,77.59
2022-07-30T19:43:24.018Z,77.08
2022-07-30T19:45:53.931Z,77.36
2022-07-30T19:48:31.574Z,76.60
2022-07-30T19:51:03.017Z,77.41
2022-07-30T19:53:34.166Z,77.16
2022-07-30T19:56:10.463Z,77.42
2022-07-30T19:58:40.456Z,77.26
2022-07-30T20:01:12.396Z,77.11
2022-07-30T20:03:42.499Z,78.12
2022-07-30T20:06:17.037Z,77.67
2022-07-30T20:08:45.822Z,77.48
2022-07-30T20:11:35.162Z,77.76
2022-07-30T20:14:05.973Z,77.60
2022-07-30T20:16:35.774Z,77.01
2022-07-30T20:19:04.866Z,76.72
2022-07-30T20:21:56.827Z,76.63
2022-07-30T20:24:23.394Z,76.92
2022-07-30T20:26:52.079Z,76.99
2022-07-30T20:29:23.082Z,77.20
2022-07-30T20:31:53.544Z,76.17
2022-07-30T20:34:26.012Z,76.20
2022-07-30T20:36:56.477Z,75.77
2022-07-30T20:39:27.119Z,75.56
2022-07-30T20:42:09.268Z,74.68
2022-07-30T20:44:44.200Z,74.61
2022-07-30T20:47:34.379Z,74.00
2022-07-30T20:50:14.447Z,74.66
2022-07-30T20:52:46.381Z,74.86
2022-07-30T20:55:22.157Z,74.25
2022-07-30T20:58:01.902Z,74.07
2022-07-30T21:00:40.964Z,73.80
2022-07-30T21:03:13.659Z,74.27
2022-07-30T21:05:44.201Z,74.88
2022-07-30T21:08:14.109Z,74.00
2022-07-30T21:10:44.737Z,74.43
2022-07-30T21:13:14.764Z,74.44
2022-07-30T21:15:45.504Z,74.50
2022-07-30T21:18:29.768Z,74.00
2022-07-30T21:20:59.135Z,75.15
2022-07-30T21:23:29.199Z,75.35
2022-07-30T21:26:00.371Z,75.28
2022-07-30T21:28:35.124Z,74.84
2022-07-30T21:31:07.108Z,75.17
2022-07-30T21:33:38.368Z,75.68
2022-07-30T21:36:10.370Z,75.46
2022-07-30T21:38:43.209Z,75.66
2022-07-30T21:44:01.307Z,76.87
2022-07-30T21:46:31.400Z,77.03
2022-07-30T21:49:00.224Z,77.20
2022-07-30T21:51:28.734Z,77.01
2022-07-30T21:53:58.875Z,76.91
2022-07-30T21:56:27.650Z,77.15
2022-07-30T21:58:56.392Z,77.36
2022-07-30T22:01:24.975Z,78.12
2022-07-30T22:04:03.217Z,77.75
2022-07-30T22:06:41.219Z,78.58
2022-07-30T22:09:19.955Z,78.84
2022-07-30T22:12:06.531Z,78.44
2022-07-30T22:14:39.311Z,78.40
2022-07-30T22:17:22.623Z,79.01
2022-07-30T22:19:54.656Z,78.98
2022-07-30T22:22:27.752Z,79.43
2022-07-30T22:24:59.960Z,79.96
2022-07-30T22:27:39.548Z,78.55
2022-07-30T22:30:13.724Z,78.62
2022-07-30T22:32:43.098Z,80.53
2022-07-30T22:35:13.599Z,80.75
2022-07-30T22:37:46.034Z,81.56
2022-07-30T22:40:15.206Z,81.73
2022-07-30T22:42:46.732Z,82.53
2022-07-30T22:45:34.018Z,82.92
2022-07-30T22:48:10.099Z,83.18
2022-07-30T22:50:41.017Z,82.24
2022-07-30T22:53:23.357Z,83.56
2022-07-30T22:55:59.698Z,84.02
2022-07-30T22:58:29.643Z,84.17
2022-07-30T23:00:58.453Z,84.86
2022-07-30T23:03:27.135Z,85.09
2022-07-30T23:05:56.864Z,85.43
2022-07-30T23:08:29.995Z,86.67
2022-07-30T23:11:00.159Z,86.82
2022-07-30T23:12:27.581Z,76.04
2022-07-30T23:13:29.196Z,87.21
2022-07-30T23:15:58.724Z,87.04
2022-07-30T23:18:28.976Z,88.26
2022-07-30T23:21:00.436Z,87.82
2022-07-30T23:23:34.022Z,88.49
2022-07-30T23:26:06.532Z,89.07
2022-07-30T23:28:36.921Z,90.08
2022-07-30T23:31:06.367Z,90.41
2022-07-30T23:33:35.192Z,90.74
2022-07-30T23:36:07.830Z,90.51
2022-07-30T23:38:37.438Z,91.17
2022-07-30T23:41:06.903Z,92.20
2022-07-30T23:43:37.438Z,92.92
2022-07-30T23:46:11.006Z,92.67
2022-07-30T23:48:40.570Z,92.83
2022-07-30T23:51:09.253Z,92.59
2022-07-30T23:53:37.982Z,93.06
2022-07-30T23:56:08.117Z,93.25
2022-07-30T23:58:36.842Z,93.03
